createdAt,value
2023-07-23T00:01:08.800Z,4.40
2023-07-23T00:03:35.326Z,4.70
2023-07-23T00:06:01.899Z,5.07
2023-07-23T00:08:28.522Z,4.70
2023-07-23T00:10:58.488Z,4.87
2023-07-23T00:13:25.713Z,4.50
2023-07-23T00:15:52.276Z,4.90
2023-07-23T00:18:18.785Z,4.17
2023-07-23T00:20:45.539Z,6.57
2023-07-23T00:23:12.162Z,5.83
2023-07-23T00:25:38.653Z,5.70
2023-07-23T00:28:05.327Z,5.37
2023-07-23T00:30:31.890Z,6.67
2023-07-23T00:32:58.429Z,7.33
2023-07-23T00:35:24.982Z,6.40
2023-07-23T00:37:51.480Z,7.03
2023-07-23T00:40:18.067Z,6.60
2023-07-23T00:42:44.595Z,6.63
2023-07-23T00:45:11.205Z,6.27
2023-07-23T00:47:37.916Z,5.87
2023-07-23T00:50:04.946Z,9.00
2023-07-23T00:52:32.123Z,9.43
2023-07-23T00:54:58.914Z,6.93
2023-07-23T00:57:25.634Z,6.47
2023-07-23T00:59:52.281Z,5.43
2023-07-23T01:02:18.915Z,5.20
2023-07-23T01:04:45.456Z,5.80
2023-07-23T01:07:13.003Z,5.47
2023-07-23T01:09:40.925Z,5.50
2023-07-23T01:12:08.608Z,5.23
2023-07-23T01:14:36.160Z,5.10
2023-07-23T01:17:03.380Z,5.07
2023-07-23T01:19:29.872Z,5.63
2023-07-23T01:22:16.617Z,6.20
2023-07-23T01:24:43.105Z,5.33
2023-07-23T01:27:09.689Z,6.27
2023-07-23T01:29:36.243Z,5.13
2023-07-23T01:32:03.082Z,5.70
2023-07-23T01:34:30.818Z,6.23
2023-07-23T01:36:57.448Z,5.43
2023-07-23T01:39:24.034Z,5.23
2023-07-23T01:41:50.651Z,5.53
2023-07-23T01:44:17.842Z,6.00
2023-07-23T01:46:44.339Z,5.40
2023-07-23T01:49:10.907Z,5.50
2023-07-23T01:51:37.407Z,5.20
2023-07-23T01:54:04.069Z,5.47
2023-07-23T01:56:30.550Z,5.60
2023-07-23T01:58:56.981Z,5.27
2023-07-23T02:01:24.115Z,5.03
2023-07-23T02:03:50.707Z,5.37
2023-07-23T02:06:17.301Z,5.47
2023-07-23T02:08:43.824Z,5.50
2023-07-23T02:11:10.288Z,4.70
2023-07-23T02:13:36.899Z,5.00
2023-07-23T02:16:04.056Z,5.37
2023-07-23T02:18:31.044Z,5.30
2023-07-23T02:20:57.642Z,5.33
2023-07-23T02:23:25.011Z,4.80
2023-07-23T02:25:51.694Z,5.20
2023-07-23T02:28:18.290Z,5.40
2023-07-23T02:30:44.989Z,4.70
2023-07-23T02:33:11.586Z,5.73
2023-07-23T02:35:38.527Z,4.93
2023-07-23T02:38:05.525Z,5.20
2023-07-23T02:40:34.378Z,5.30
2023-07-23T02:43:02.203Z,4.87
2023-07-23T02:45:30.341Z,4.10
2023-07-23T02:47:56.936Z,5.67
2023-07-23T02:50:24.165Z,5.70
2023-07-23T02:52:50.708Z,4.30
2023-07-23T02:55:17.537Z,5.13
2023-07-23T02:57:44.233Z,4.77
2023-07-23T03:00:12.700Z,5.03
2023-07-23T03:02:39.312Z,4.70
2023-07-23T03:05:06.436Z,4.57
2023-07-23T03:07:33.674Z,4.83
2023-07-23T03:10:00.269Z,5.47
2023-07-23T03:12:26.750Z,4.97
2023-07-23T03:14:54.475Z,4.40
2023-07-23T03:17:21.001Z,4.80
2023-07-23T03:19:47.533Z,4.47
2023-07-23T03:22:14.342Z,5.20
2023-07-23T03:24:40.951Z,4.60
2023-07-23T03:27:07.451Z,4.17
2023-07-23T03:29:34.043Z,4.83
2023-07-23T03:32:00.780Z,4.50
2023-07-23T03:34:27.386Z,5.20
2023-07-23T03:36:53.929Z,4.77
2023-07-23T03:39:20.405Z,5.37
2023-07-23T03:41:50.648Z,4.40
2023-07-23T03:44:17.119Z,4.90
2023-07-23T03:47:04.543Z,4.67
2023-07-23T03:49:31.158Z,4.80
2023-07-23T03:51:59.692Z,4.67
2023-07-23T03:54:26.664Z,4.70
2023-07-23T03:56:54.308Z,4.07
2023-07-23T03:59:20.801Z,4.53
2023-07-23T04:01:47.320Z,4.40
2023-07-23T04:04:14.162Z,5.23
2023-07-23T04:06:40.724Z,5.17
2023-07-23T04:09:07.203Z,4.53
2023-07-23T04:11:33.663Z,4.80
2023-07-23T04:14:00.139Z,5.00
2023-07-23T04:16:26.631Z,4.97
2023-07-23T04:18:54.512Z,4.67
2023-07-23T04:21:23.097Z,4.50
2023-07-23T04:23:51.492Z,3.90
2023-07-23T04:26:19.489Z,4.43
2023-07-23T04:28:46.718Z,4.70
2023-07-23T04:31:13.864Z,4.40
2023-07-23T04:33:40.703Z,4.30
2023-07-23T04:36:08.668Z,4.17
2023-07-23T04:38:36.245Z,4.70
2023-07-23T04:41:03.077Z,4.40
2023-07-23T04:43:29.735Z,4.30
2023-07-23T04:45:56.240Z,4.47
2023-07-23T04:48:22.938Z,4.57
2023-07-23T04:51:10.079Z,4.80
2023-07-23T04:53:36.645Z,3.93
2023-07-23T04:56:05.390Z,4.70
2023-07-23T04:58:33.022Z,4.37
2023-07-23T05:01:05.997Z,3.90
2023-07-23T05:03:32.716Z,4.07
2023-07-23T05:06:03.947Z,4.30
2023-07-23T05:08:30.502Z,3.70
2023-07-23T05:11:01.953Z,4.40
2023-07-23T05:13:29.572Z,5.00
2023-07-23T05:15:58.354Z,4.10
2023-07-23T05:18:25.234Z,4.03
2023-07-23T05:20:51.741Z,4.20
2023-07-23T05:23:19.492Z,4.33
2023-07-23T05:25:46.300Z,4.43
2023-07-23T05:28:13.129Z,4.10
2023-07-23T05:30:39.952Z,4.03
2023-07-23T05:33:08.704Z,4.00
2023-07-23T05:35:35.966Z,4.30
2023-07-23T05:38:02.442Z,3.90
2023-07-23T05:40:31.440Z,4.53
2023-07-23T05:43:00.571Z,3.53
2023-07-23T05:45:27.141Z,4.00
2023-07-23T05:47:53.648Z,3.63
2023-07-23T05:50:20.150Z,3.60
2023-07-23T05:52:46.663Z,3.97
2023-07-23T05:55:13.123Z,4.30
2023-07-23T05:57:39.732Z,4.03
2023-07-23T06:00:07.008Z,4.60
2023-07-23T06:02:33.537Z,4.43
2023-07-23T06:04:59.985Z,4.73
2023-07-23T06:07:26.489Z,4.60
2023-07-23T06:09:53.025Z,3.40
2023-07-23T06:12:19.700Z,4.40
2023-07-23T06:14:46.367Z,3.67
2023-07-23T06:17:12.899Z,3.80
2023-07-23T06:19:39.371Z,3.67
2023-07-23T06:22:06.130Z,4.00
2023-07-23T06:24:32.702Z,3.97
2023-07-23T06:26:59.267Z,3.83
2023-07-23T06:29:26.868Z,4.47
2023-07-23T06:31:53.729Z,4.40
2023-07-23T06:34:20.842Z,3.97
2023-07-23T06:36:47.716Z,3.80
2023-07-23T06:39:14.788Z,3.67
2023-07-23T06:41:41.934Z,3.70
2023-07-23T06:44:08.479Z,3.80
2023-07-23T06:46:35.072Z,4.00
2023-07-23T06:49:01.704Z,4.17
2023-07-23T06:51:28.339Z,3.97
2023-07-23T06:53:55.002Z,3.53
2023-07-23T06:56:21.661Z,3.80
2023-07-23T06:58:48.720Z,4.10
2023-07-23T07:01:15.190Z,4.67
2023-07-23T07:03:41.807Z,3.90
2023-07-23T07:06:08.311Z,3.37
2023-07-23T07:08:34.946Z,3.47
2023-07-23T07:11:03.870Z,3.53
2023-07-23T07:13:31.767Z,3.13
2023-07-23T07:15:59.009Z,3.67
2023-07-23T07:18:26.789Z,3.73
2023-07-23T07:21:01.083Z,3.27
2023-07-23T07:23:28.925Z,3.47
2023-07-23T07:25:59.492Z,3.57
2023-07-23T07:28:26.625Z,3.37
2023-07-23T07:31:00.811Z,3.40
2023-07-23T07:33:28.367Z,3.13
2023-07-23T07:35:58.979Z,3.23
2023-07-23T07:38:26.763Z,3.80
2023-07-23T07:40:53.846Z,3.40
2023-07-23T07:43:20.427Z,3.40
2023-07-23T07:45:51.370Z,3.20
2023-07-23T07:48:21.793Z,2.90
2023-07-23T07:50:57.878Z,3.60
2023-07-23T07:53:24.462Z,4.60
2023-07-23T07:55:50.981Z,3.70
2023-07-23T07:58:18.353Z,2.77
2023-07-23T08:00:45.084Z,3.60
2023-07-23T08:03:12.091Z,3.30
2023-07-23T08:05:39.133Z,3.47
2023-07-23T08:08:07.127Z,5.83
2023-07-23T08:10:35.496Z,3.57
2023-07-23T08:13:03.594Z,3.80
2023-07-23T08:15:32.740Z,8.90
2023-07-23T08:18:00.450Z,5.53
2023-07-23T08:20:32.164Z,5.13
2023-07-23T08:22:59.000Z,4.70
2023-07-23T08:25:25.857Z,5.47
2023-07-23T08:27:54.089Z,4.13
2023-07-23T08:30:22.052Z,3.27
2023-07-23T08:32:49.575Z,3.03
2023-07-23T08:35:16.380Z,3.27
2023-07-23T08:37:43.195Z,2.70
2023-07-23T08:40:10.314Z,3.00
2023-07-23T08:42:54.888Z,2.70
2023-07-23T08:45:42.742Z,3.57
2023-07-23T08:48:15.601Z,3.20
2023-07-23T08:50:44.720Z,3.40
2023-07-23T08:53:13.228Z,2.73
2023-07-23T08:55:45.034Z,3.43
2023-07-23T08:58:17.003Z,4.03
2023-07-23T09:00:45.146Z,2.70
2023-07-23T09:03:13.363Z,2.47
2023-07-23T09:05:40.715Z,2.73
2023-07-23T09:08:08.520Z,2.73
2023-07-23T09:10:35.096Z,5.77
2023-07-23T09:13:12.336Z,3.47
2023-07-23T09:15:38.887Z,13.00
2023-07-23T09:18:05.483Z,11.50
2023-07-23T09:20:32.214Z,5.67
2023-07-23T09:23:06.139Z,4.20
2023-07-23T09:25:33.260Z,6.60
2023-07-23T09:27:59.832Z,4.17
2023-07-23T09:30:26.998Z,4.50
2023-07-23T09:33:03.084Z,4.80
2023-07-23T09:35:33.675Z,3.63
2023-07-23T09:38:01.222Z,3.10
2023-07-23T09:40:38.960Z,3.70
2023-07-23T09:43:06.340Z,4.07
2023-07-23T09:45:37.600Z,3.20
2023-07-23T09:48:15.201Z,3.10
2023-07-23T09:50:42.517Z,4.83
2023-07-23T09:53:10.073Z,3.40
2023-07-23T09:55:38.222Z,3.50
2023-07-23T09:58:07.314Z,3.47
2023-07-23T10:00:37.341Z,2.90
2023-07-23T10:03:06.649Z,2.40
2023-07-23T10:05:36.410Z,2.50
2023-07-23T10:08:07.123Z,2.73
2023-07-23T10:10:33.626Z,2.47
2023-07-23T10:13:00.199Z,2.70
2023-07-23T10:15:27.685Z,3.07
2023-07-23T10:18:00.300Z,3.60
2023-07-23T10:20:29.739Z,2.70
2023-07-23T10:22:57.166Z,5.43
2023-07-23T10:25:30.649Z,4.13
2023-07-23T10:27:59.255Z,3.53
2023-07-23T10:30:26.728Z,5.03
2023-07-23T10:33:12.016Z,3.67
2023-07-23T10:35:57.284Z,2.53
2023-07-23T10:38:24.746Z,2.47
2023-07-23T10:40:51.668Z,3.03
2023-07-23T10:43:18.815Z,2.67
2023-07-23T10:46:01.546Z,4.80
2023-07-23T10:48:51.263Z,4.20
2023-07-23T10:51:25.377Z,5.60
2023-07-23T10:54:03.794Z,2.40
2023-07-23T10:56:39.917Z,1.83
2023-07-23T10:59:17.956Z,2.47
2023-07-23T11:01:46.949Z,2.00
2023-07-23T11:04:15.603Z,2.07
2023-07-23T11:06:56.872Z,2.13
2023-07-23T11:09:38.482Z,1.73
2023-07-23T11:12:07.047Z,1.90
2023-07-23T11:14:36.158Z,2.20
2023-07-23T11:17:04.935Z,2.20
2023-07-23T11:19:32.508Z,1.73
2023-07-23T11:22:03.910Z,1.83
2023-07-23T11:24:31.678Z,2.20
2023-07-23T11:27:01.014Z,2.10
2023-07-23T11:29:31.250Z,2.60
2023-07-23T11:32:01.923Z,5.37
2023-07-23T11:34:28.633Z,2.97
2023-07-23T11:36:57.175Z,3.07
2023-07-23T11:39:25.490Z,2.77
2023-07-23T11:41:53.211Z,1.70
2023-07-23T11:44:20.242Z,2.20
2023-07-23T11:46:46.850Z,1.80
2023-07-23T11:49:14.706Z,1.50
2023-07-23T11:51:41.558Z,1.90
2023-07-23T11:54:11.252Z,1.77
2023-07-23T11:56:48.992Z,2.10
2023-07-23T11:59:19.270Z,2.10
2023-07-23T12:01:46.892Z,1.67
2023-07-23T12:04:13.598Z,1.63
2023-07-23T12:06:41.347Z,1.97
2023-07-23T12:09:12.811Z,2.00
2023-07-23T12:11:42.758Z,1.97
2023-07-23T12:14:09.809Z,2.10
2023-07-23T12:16:44.668Z,1.90
2023-07-23T12:19:16.465Z,1.90
2023-07-23T12:21:45.361Z,1.73
2023-07-23T12:24:33.091Z,2.60
2023-07-23T12:27:00.923Z,1.80
2023-07-23T12:29:29.292Z,1.63
2023-07-23T12:32:16.328Z,1.40
2023-07-23T12:34:45.690Z,1.50
2023-07-23T12:37:13.194Z,1.80
2023-07-23T12:39:39.757Z,2.00
2023-07-23T12:42:06.566Z,2.20
2023-07-23T12:44:33.208Z,1.60
2023-07-23T12:46:59.999Z,1.70
2023-07-23T12:49:26.539Z,1.73
2023-07-23T12:51:53.052Z,1.70
2023-07-23T12:54:19.529Z,1.73
2023-07-23T12:56:46.082Z,2.00
2023-07-23T12:59:13.308Z,1.53
2023-07-23T13:01:39.946Z,1.43
2023-07-23T13:04:06.476Z,1.87
2023-07-23T13:06:33.109Z,1.47
2023-07-23T13:08:59.637Z,1.80
2023-07-23T13:11:26.084Z,1.63
2023-07-23T13:13:52.611Z,1.53
2023-07-23T13:16:25.179Z,1.50
2023-07-23T13:18:51.764Z,1.50
2023-07-23T13:21:18.283Z,2.00
2023-07-23T13:23:44.781Z,1.60
2023-07-23T13:26:11.818Z,1.60
2023-07-23T13:28:38.343Z,2.00
2023-07-23T13:31:04.896Z,1.43
2023-07-23T13:33:31.401Z,1.80
2023-07-23T13:35:58.022Z,1.90
2023-07-23T13:38:24.727Z,2.00
2023-07-23T13:40:51.965Z,1.70
2023-07-23T13:43:18.497Z,1.60
2023-07-23T13:45:45.030Z,1.60
2023-07-23T13:48:11.511Z,1.80
2023-07-23T13:50:50.411Z,2.03
2023-07-23T13:53:17.988Z,1.50
2023-07-23T13:55:44.546Z,1.70
2023-07-23T13:58:11.041Z,1.73
2023-07-23T14:00:37.655Z,2.10
2023-07-23T14:03:04.879Z,1.73
2023-07-23T14:05:32.487Z,1.57
2023-07-23T14:07:59.154Z,1.27
2023-07-23T14:10:26.192Z,1.50
2023-07-23T14:12:52.851Z,1.70
2023-07-23T14:15:19.431Z,1.80
2023-07-23T14:17:46.001Z,1.50
2023-07-23T14:20:12.575Z,1.50
2023-07-23T14:22:39.337Z,1.63
2023-07-23T14:25:06.009Z,1.80
2023-07-23T14:27:32.586Z,1.40
2023-07-23T14:29:59.124Z,1.50
2023-07-23T14:32:25.632Z,1.30
2023-07-23T14:34:52.248Z,1.33
2023-07-23T14:37:18.917Z,1.77
2023-07-23T14:39:45.565Z,1.60
2023-07-23T14:42:12.486Z,1.87
2023-07-23T14:44:41.012Z,1.50
2023-07-23T14:47:08.841Z,1.30
2023-07-23T14:49:37.463Z,1.80
2023-07-23T14:52:04.901Z,1.60
2023-07-23T14:54:31.467Z,2.00
2023-07-23T14:56:57.991Z,1.40
2023-07-23T14:59:24.480Z,1.50
2023-07-23T15:01:51.018Z,1.60
2023-07-23T15:04:17.686Z,1.40
2023-07-23T15:06:44.296Z,1.30
2023-07-23T15:09:13.260Z,1.87
2023-07-23T15:11:41.309Z,1.53
2023-07-23T15:14:08.258Z,1.70
2023-07-23T15:16:35.227Z,1.83
2023-07-23T15:19:02.211Z,1.60
2023-07-23T15:21:29.592Z,1.50
2023-07-23T15:23:56.909Z,2.10
2023-07-23T15:26:26.462Z,1.60
2023-07-23T15:28:57.204Z,2.10
2023-07-23T15:31:23.810Z,3.43
2023-07-23T15:33:50.328Z,2.43
2023-07-23T15:36:16.859Z,2.00
2023-07-23T15:38:43.302Z,1.70
2023-07-23T15:41:11.280Z,1.50
2023-07-23T15:43:37.863Z,1.60
2023-07-23T15:46:04.499Z,2.23
2023-07-23T15:48:31.049Z,1.83
2023-07-23T15:50:57.615Z,2.00
2023-07-23T15:53:24.119Z,1.80
2023-07-23T15:55:51.827Z,1.67
2023-07-23T15:58:18.323Z,1.83
2023-07-23T16:00:44.843Z,1.60
2023-07-23T16:03:11.515Z,1.90
2023-07-23T16:05:38.139Z,1.60
2023-07-23T16:08:04.972Z,1.93
2023-07-23T16:10:31.665Z,1.50
2023-07-23T16:12:58.209Z,2.10
2023-07-23T16:15:25.736Z,1.77
2023-07-23T16:17:52.415Z,1.93
2023-07-23T16:20:19.338Z,2.07
2023-07-23T16:22:45.840Z,1.90
2023-07-23T16:25:12.805Z,2.10
2023-07-23T16:27:39.314Z,1.70
2023-07-23T16:30:06.575Z,1.70
2023-07-23T16:32:37.740Z,1.50
2023-07-23T16:35:05.297Z,1.70
2023-07-23T16:37:37.743Z,1.60
2023-07-23T16:40:05.681Z,1.60
2023-07-23T16:42:32.462Z,2.20
2023-07-23T16:45:01.979Z,1.90
2023-07-23T16:47:28.543Z,1.70
2023-07-23T16:49:55.088Z,1.73
2023-07-23T16:52:21.604Z,1.50
2023-07-23T16:54:49.266Z,1.43
2023-07-23T16:57:15.823Z,14.20
2023-07-23T16:59:44.772Z,6.93
2023-07-23T17:02:13.281Z,5.50
2023-07-23T17:04:40.751Z,1.73
2023-07-23T17:07:07.256Z,2.40
2023-07-23T17:09:33.780Z,1.60
2023-07-23T17:12:00.321Z,1.60
2023-07-23T17:14:26.855Z,1.57
2023-07-23T17:16:53.413Z,6.80
2023-07-23T17:19:20.037Z,2.40
2023-07-23T17:21:46.662Z,1.63
2023-07-23T17:24:13.343Z,1.67
2023-07-23T17:26:40.376Z,1.60
2023-07-23T17:29:07.337Z,1.70
2023-07-23T17:31:33.790Z,1.40
2023-07-23T17:34:00.742Z,1.70
2023-07-23T17:36:28.088Z,1.27
2023-07-23T17:38:54.832Z,1.50
2023-07-23T17:41:21.379Z,1.40
2023-07-23T17:43:48.859Z,1.40
2023-07-23T17:46:15.545Z,1.33
2023-07-23T17:48:44.127Z,2.50
2023-07-23T17:51:10.590Z,2.60
2023-07-23T17:53:38.508Z,1.93
2023-07-23T17:56:05.917Z,1.50
2023-07-23T17:58:33.136Z,1.40
2023-07-23T18:00:59.696Z,1.80
2023-07-23T18:03:26.222Z,2.17
2023-07-23T18:05:59.959Z,1.37
2023-07-23T18:08:26.955Z,1.50
2023-07-23T18:10:53.519Z,1.40
2023-07-23T18:13:20.186Z,1.37
2023-07-23T18:15:47.265Z,1.30
2023-07-23T18:18:13.857Z,2.30
2023-07-23T18:20:40.350Z,1.50
2023-07-23T18:23:06.873Z,1.40
2023-07-23T18:25:33.770Z,1.20
2023-07-23T18:28:00.209Z,1.30
2023-07-23T18:30:26.715Z,1.70
2023-07-23T18:32:53.393Z,1.40
2023-07-23T18:35:20.011Z,1.57
2023-07-23T18:37:47.455Z,4.20
2023-07-23T18:40:13.944Z,4.90
2023-07-23T18:42:40.582Z,7.07
2023-07-23T18:45:07.884Z,8.13
2023-07-23T18:47:34.438Z,6.20
2023-07-23T18:50:01.002Z,6.60
2023-07-23T18:52:28.671Z,5.60
2023-07-23T18:54:55.698Z,4.30
2023-07-23T18:57:22.207Z,3.30
2023-07-23T18:59:48.816Z,2.87
2023-07-23T19:02:15.394Z,2.67
2023-07-23T19:04:46.653Z,7.40
2023-07-23T19:07:14.123Z,7.40
2023-07-23T19:09:40.950Z,6.70
2023-07-23T19:12:07.964Z,6.83
2023-07-23T19:14:34.556Z,4.57
2023-07-23T19:17:01.149Z,4.60
2023-07-23T19:19:28.410Z,4.70
2023-07-23T19:21:54.978Z,4.87
2023-07-23T19:24:21.557Z,4.73
2023-07-23T19:26:48.125Z,2.50
2023-07-23T19:29:14.576Z,2.50
2023-07-23T19:31:42.566Z,1.90
2023-07-23T19:34:09.334Z,1.73
2023-07-23T19:36:35.882Z,3.77
2023-07-23T19:39:02.436Z,2.60
2023-07-23T19:41:28.920Z,2.77
2023-07-23T19:43:55.441Z,14.67
2023-07-23T19:46:21.967Z,7.13
2023-07-23T19:48:48.576Z,9.87
2023-07-23T19:51:15.103Z,9.23
2023-07-23T19:53:41.702Z,7.30
2023-07-23T19:56:08.278Z,6.90
2023-07-23T19:58:34.748Z,8.93
2023-07-23T20:01:01.239Z,7.77
2023-07-23T20:03:27.775Z,8.10
2023-07-23T20:05:54.764Z,4.67
2023-07-23T20:08:21.253Z,4.73
2023-07-23T20:10:47.856Z,4.27
2023-07-23T20:13:14.361Z,3.33
2023-07-23T20:15:40.865Z,3.50
2023-07-23T20:18:07.406Z,2.70
2023-07-23T20:20:33.967Z,3.10
2023-07-23T20:23:00.487Z,4.97
2023-07-23T20:25:27.042Z,4.80
2023-07-23T20:27:53.565Z,4.43
2023-07-23T20:30:20.697Z,4.50
2023-07-23T20:32:48.308Z,3.90
2023-07-23T20:35:16.858Z,6.30
2023-07-23T20:37:43.906Z,3.87
2023-07-23T20:40:11.043Z,3.10
2023-07-23T20:42:37.767Z,2.80
2023-07-23T20:45:04.735Z,3.50
2023-07-23T20:47:31.366Z,4.50
2023-07-23T20:49:57.907Z,4.10
2023-07-23T20:52:24.504Z,4.10
2023-07-23T20:54:50.980Z,5.30
2023-07-23T20:57:17.511Z,5.43
2023-07-23T20:59:44.058Z,4.30
2023-07-23T21:02:10.558Z,5.00
2023-07-23T21:04:37.072Z,7.33
2023-07-23T21:07:03.864Z,5.63
2023-07-23T21:09:31.133Z,4.57
2023-07-23T21:11:58.395Z,4.13
2023-07-23T21:14:24.909Z,3.93
2023-07-23T21:16:51.418Z,2.73
2023-07-23T21:19:17.896Z,3.13
2023-07-23T21:21:44.424Z,3.47
2023-07-23T21:24:10.944Z,3.40
2023-07-23T21:26:39.429Z,3.93
2023-07-23T21:29:05.886Z,2.83
2023-07-23T21:31:32.401Z,6.70
2023-07-23T21:33:58.875Z,5.00
2023-07-23T21:36:25.400Z,5.40
2023-07-23T21:38:52.190Z,5.27
2023-07-23T21:41:18.670Z,4.33
2023-07-23T21:43:45.173Z,5.50
2023-07-23T21:46:11.738Z,4.50
2023-07-23T21:48:38.350Z,3.20
2023-07-23T21:51:04.826Z,2.83
2023-07-23T21:53:31.474Z,2.70
2023-07-23T21:55:57.958Z,2.30
2023-07-23T21:58:24.579Z,2.37
2023-07-23T22:00:51.080Z,2.20
2023-07-23T22:03:18.121Z,2.00
2023-07-23T22:05:47.664Z,2.37
2023-07-23T22:08:15.135Z,2.37
2023-07-23T22:10:41.787Z,2.60
2023-07-23T22:13:08.399Z,2.40
2023-07-23T22:15:34.874Z,1.90
2023-07-23T22:18:01.421Z,1.80
2023-07-23T22:20:27.972Z,2.17
2023-07-23T22:22:54.544Z,2.10
2023-07-23T22:25:21.029Z,2.30
2023-07-23T22:27:47.574Z,2.20
2023-07-23T22:30:28.982Z,2.00
2023-07-23T22:32:57.755Z,2.97
2023-07-23T22:35:24.385Z,3.30
2023-07-23T22:37:50.869Z,3.47
2023-07-23T22:40:17.361Z,4.03
2023-07-23T22:42:46.775Z,3.57
2023-07-23T22:45:14.530Z,3.77
2023-07-23T22:47:41.137Z,4.03
2023-07-23T22:50:07.926Z,3.30
2023-07-23T22:52:37.317Z,3.13
2023-07-23T22:55:04.415Z,3.87
2023-07-23T22:57:31.564Z,3.53
2023-07-23T23:00:01.342Z,3.00
2023-07-23T23:02:28.069Z,3.27
2023-07-23T23:04:54.604Z,3.47
2023-07-23T23:07:21.113Z,3.10
2023-07-23T23:09:47.711Z,3.50
2023-07-23T23:12:14.231Z,3.53
2023-07-23T23:14:40.716Z,3.53
2023-07-23T23:17:07.244Z,3.40
2023-07-23T23:19:33.751Z,3.57
2023-07-23T23:22:00.210Z,3.93
2023-07-23T23:24:26.723Z,3.10
2023-07-23T23:26:53.207Z,3.30
2023-07-23T23:29:20.169Z,3.47
2023-07-23T23:31:46.740Z,3.40
2023-07-23T23:34:13.261Z,3.20
2023-07-23T23:36:39.789Z,3.03
2023-07-23T23:39:06.423Z,2.83
2023-07-23T23:41:32.913Z,3.07
2023-07-23T23:43:59.390Z,2.83
2023-07-23T23:46:26.077Z,3.20
2023-07-23T23:48:52.645Z,3.33
2023-07-23T23:51:21.266Z,3.00
2023-07-23T23:53:47.976Z,3.33
2023-07-23T23:56:14.571Z,3.00
2023-07-23T23:58:41.109Z,3.30
